createdAt,value
2023-05-08T00:01:08.358Z,0.0
2023-05-08T00:06:14.712Z,0.0
2023-05-08T00:11:21.216Z,0.0
2023-05-08T00:16:27.694Z,0.0
2023-05-08T00:21:37.655Z,0.0
2023-05-08T00:26:44.066Z,0.0
2023-05-08T00:31:54.015Z,0.0
2023-05-08T00:37:00.356Z,0.0
2023-05-08T00:42:10.758Z,0.0
2023-05-08T00:47:13.097Z,0.0
2023-05-08T00:52:21.111Z,0.0
2023-05-08T00:57:27.530Z,0.0
2023-05-08T01:02:35.513Z,0.0
2023-05-08T01:07:41.847Z,0.0
2023-05-08T01:12:48.430Z,0.0
2023-05-08T01:17:44.745Z,0.0
2023-05-08T01:23:01.124Z,0.0
2023-05-08T01:28:07.545Z,0.0
2023-05-08T01:33:14.037Z,0.0
2023-05-08T01:38:20.312Z,0.0
2023-05-08T01:43:28.260Z,0.0
2023-05-08T01:48:34.790Z,0.0
2023-05-08T01:53:41.300Z,0.0
2023-05-08T01:58:47.732Z,0.0
2023-05-08T02:03:57.755Z,0.0
2023-05-08T02:09:04.058Z,0.0
2023-05-08T02:14:10.468Z,0.0
2023-05-08T02:19:16.786Z,0.0
2023-05-08T02:24:23.296Z,0.0
2023-05-08T02:29:33.289Z,0.0
2023-05-08T02:34:45.182Z,0.0
2023-05-08T02:39:49.639Z,0.0
2023-05-08T02:44:56.096Z,0.0
2023-05-08T02:50:06.129Z,0.0
2023-05-08T02:55:12.520Z,0.0
2023-05-08T03:00:19.054Z,0.0
2023-05-08T03:05:25.481Z,0.0
2023-05-08T03:10:21.916Z,0.0
2023-05-08T03:15:38.319Z,4.0
2023-05-08T03:20:46.205Z,4.0
2023-05-08T03:25:52.604Z,4.0
2023-05-08T03:31:02.558Z,12.0
2023-05-08T03:36:08.903Z,20.0
2023-05-08T03:41:18.856Z,40.0
2023-05-08T03:46:25.321Z,72.0
2023-05-08T03:51:31.802Z,116.0
2023-05-08T03:56:38.279Z,172.0
2023-05-08T04:01:46.385Z,240.0
2023-05-08T04:06:56.686Z,264.0
2023-05-08T04:12:02.656Z,276.0
2023-05-08T04:27:03.481Z,364.0
2023-05-08T04:45:21.718Z,580.0
2023-05-08T04:53:09.356Z,616.0
2023-05-08T04:57:39.641Z,648.0
2023-05-08T05:02:46.059Z,756.0
2023-05-08T05:07:52.396Z,904.0
2023-05-08T05:12:58.787Z,1052.0
2023-05-08T05:18:05.229Z,1144.0
2023-05-08T05:23:15.516Z,1200.0
2023-05-08T05:28:08.042Z,1340.0
2023-05-08T05:33:24.571Z,1616.0
2023-05-08T05:38:30.906Z,2024.0
2023-05-08T05:43:37.282Z,2316.0
2023-05-08T05:48:43.697Z,2652.0
2023-05-08T05:53:50.051Z,3180.0
2023-05-08T05:58:56.450Z,3708.0
2023-05-08T06:04:03.048Z,4336.0
2023-05-08T06:09:09.344Z,4996.0
2023-05-08T06:14:15.723Z,5556.0
2023-05-08T06:19:22.116Z,6260.0
2023-05-08T06:24:28.501Z,5996.0
2023-05-08T06:29:34.845Z,5852.0
2023-05-08T06:34:41.511Z,6604.0
2023-05-08T06:39:50.522Z,8180.0
2023-05-08T06:44:54.477Z,8200.0
2023-05-08T06:50:00.885Z,10940.0
2023-05-08T06:55:07.241Z,12864.0
2023-05-08T07:00:13.616Z,9084.0
2023-05-08T07:05:20.351Z,8024.0
2023-05-08T07:10:26.433Z,7460.0
2023-05-08T07:15:32.924Z,7648.0
2023-05-08T07:20:39.376Z,7856.0
2023-05-08T07:25:35.711Z,8636.0
2023-05-08T07:31:12.198Z,8000.0
2023-05-08T07:35:58.534Z,7916.0
2023-05-08T07:41:04.917Z,9656.0
2023-05-08T07:46:11.222Z,8576.0
2023-05-08T07:51:17.802Z,10096.0
2023-05-08T07:56:24.137Z,13700.0
2023-05-08T08:01:30.502Z,16512.0
2023-05-08T08:06:36.914Z,13072.0
2023-05-08T08:11:43.329Z,15520.0
2023-05-08T08:16:49.883Z,16928.0
2023-05-08T08:21:56.329Z,14592.0
2023-05-08T08:27:02.565Z,11716.0
2023-05-08T08:32:29.007Z,10040.0
2023-05-08T08:37:15.467Z,15008.0
2023-05-08T08:42:22.303Z,18304.0
2023-05-08T08:47:28.732Z,29792.0
2023-05-08T08:52:25.148Z,41344.0
2023-05-08T08:57:41.426Z,39296.0
2023-05-08T09:03:58.030Z,39264.0
2023-05-08T09:07:54.368Z,40288.0
2023-05-08T09:12:50.621Z,44288.0
2023-05-08T09:17:57.310Z,44992.0
2023-05-08T09:23:03.764Z,45664.0
2023-05-08T09:28:20.029Z,51008.0
2023-05-08T09:33:29.976Z,46336.0
2023-05-08T09:38:36.483Z,25024.0
2023-05-08T09:43:44.310Z,37664.0
2023-05-08T09:49:10.761Z,27008.0
2023-05-08T09:54:21.298Z,26976.0
2023-05-08T09:59:03.505Z,24672.0
2023-05-08T10:04:09.901Z,19552.0
2023-05-08T10:09:16.258Z,21120.0
2023-05-08T10:14:22.755Z,22880.0
2023-05-08T10:19:29.194Z,19776.0
2023-05-08T10:24:35.664Z,21216.0
2023-05-08T10:29:42.489Z,22080.0
2023-05-08T10:34:48.814Z,23520.0
2023-05-08T10:39:55.206Z,26112.0
2023-05-08T10:45:21.763Z,27040.0
2023-05-08T10:50:07.976Z,36192.0
2023-05-08T10:55:14.340Z,32288.0
2023-05-08T11:00:23.741Z,30496.0
2023-05-08T11:05:20.129Z,38112.0
2023-05-08T11:11:04.119Z,35936.0
2023-05-08T11:15:46.502Z,27712.0
2023-05-08T11:20:52.990Z,35168.0
2023-05-08T11:25:59.337Z,39168.0
2023-05-08T11:31:07.386Z,45952.0
2023-05-08T11:36:13.700Z,65280.0
2023-05-08T11:41:21.650Z,71712.0
2023-05-08T11:46:28.081Z,49664.0
2023-05-08T11:51:34.565Z,59360.0
2023-05-08T11:56:40.994Z,69568.0
2023-05-08T12:01:37.355Z,47040.0
2023-05-08T12:06:53.801Z,33152.0
2023-05-08T12:12:00.309Z,64768.0
2023-05-08T12:17:06.820Z,48288.0
2023-05-08T12:22:13.173Z,68544.0
2023-05-08T12:27:19.537Z,59264.0
2023-05-08T12:32:29.067Z,56800.0
2023-05-08T12:37:33.905Z,33312.0
2023-05-08T12:42:40.340Z,24608.0
2023-05-08T12:47:50.742Z,18656.0
2023-05-08T12:52:54.793Z,21824.0
2023-05-08T12:58:01.074Z,16576.0
2023-05-08T13:03:07.533Z,11040.0
2023-05-08T13:08:13.941Z,13508.0
2023-05-08T13:13:19.214Z,16608.0
2023-05-08T13:18:26.730Z,12304.0
2023-05-08T13:23:23.164Z,12616.0
2023-05-08T13:28:29.412Z,26720.0
2023-05-08T13:33:47.605Z,38464.0
2023-05-08T13:38:54.103Z,14644.0
2023-05-08T13:44:00.358Z,21696.0
2023-05-08T13:49:06.822Z,27520.0
2023-05-08T13:54:13.473Z,27872.0
2023-05-08T13:59:19.690Z,26176.0
2023-05-08T14:04:27.657Z,20224.0
2023-05-08T14:15:17.268Z,20928.0
2023-05-08T14:19:50.445Z,13232.0
2023-05-08T14:24:56.784Z,20288.0
2023-05-08T14:30:04.776Z,12204.0
2023-05-08T14:35:11.608Z,17376.0
2023-05-08T14:40:17.748Z,14476.0
2023-05-08T14:45:24.123Z,14404.0
2023-05-08T14:50:30.755Z,14156.0
2023-05-08T14:55:37.437Z,9800.0
2023-05-08T15:00:45.056Z,11660.0
2023-05-08T15:05:51.552Z,9204.0
2023-05-08T15:10:59.364Z,9000.0
2023-05-08T15:16:05.812Z,10668.0
2023-05-08T15:21:02.268Z,11280.0
2023-05-08T15:26:08.512Z,11436.0
2023-05-08T15:32:00.611Z,11428.0
2023-05-08T15:36:57.117Z,11168.0
2023-05-08T15:41:39.835Z,10368.0
2023-05-08T15:46:47.195Z,11500.0
2023-05-08T15:51:53.570Z,9392.0
2023-05-08T15:57:14.225Z,7596.0
2023-05-08T16:02:07.092Z,7664.0
2023-05-08T16:07:14.422Z,7208.0
2023-05-08T16:12:20.905Z,7660.0
2023-05-08T16:17:30.210Z,6772.0
2023-05-08T16:22:38.165Z,7488.0
2023-05-08T16:27:44.749Z,6168.0
2023-05-08T16:32:52.628Z,6192.0
2023-05-08T16:37:58.974Z,6192.0
2023-05-08T16:42:55.454Z,5280.0
2023-05-08T16:48:11.722Z,5228.0
2023-05-08T16:53:18.091Z,4832.0
2023-05-08T16:58:14.698Z,3556.0
2023-05-08T17:03:21.041Z,3324.0
2023-05-08T17:08:37.349Z,3144.0
2023-05-08T17:14:39.535Z,3212.0
2023-05-08T17:18:41.627Z,3180.0
2023-05-08T17:23:58.023Z,2796.0
2023-05-08T17:29:04.536Z,2668.0
2023-05-08T17:34:11.641Z,2448.0
2023-05-08T17:39:07.854Z,2180.0
2023-05-08T17:44:25.812Z,1916.0
2023-05-08T17:49:32.322Z,1716.0
2023-05-08T17:54:38.568Z,1624.0
2023-05-08T17:59:45.018Z,1596.0
2023-05-08T18:04:51.609Z,1560.0
2023-05-08T18:09:57.858Z,1500.0
2023-05-08T18:15:04.231Z,1396.0
2023-05-08T18:20:14.585Z,1252.0
2023-05-08T18:25:20.598Z,1068.0
2023-05-08T18:30:30.987Z,868.0
2023-05-08T18:35:33.667Z,656.0
2023-05-08T18:40:39.842Z,468.0
2023-05-08T18:45:46.239Z,340.0
2023-05-08T18:50:52.743Z,256.0
2023-05-08T18:55:58.996Z,196.0
2023-05-08T19:01:05.409Z,144.0
2023-05-08T19:06:02.100Z,104.0
2023-05-08T19:11:52.347Z,68.0
2023-05-08T19:16:24.708Z,40.0
2023-05-08T19:22:05.234Z,20.0
2023-05-08T19:26:37.460Z,12.0
2023-05-08T19:31:45.394Z,4.0
2023-05-08T19:36:51.772Z,4.0
2023-05-08T19:41:58.281Z,0.0
2023-05-08T19:47:04.389Z,0.0
2023-05-08T19:52:11.137Z,0.0
2023-05-08T19:57:17.650Z,0.0
2023-05-08T20:02:13.859Z,0.0
2023-05-08T20:07:30.255Z,0.0
2023-05-08T20:12:36.750Z,0.0
2023-05-08T20:17:43.002Z,0.0
2023-05-08T20:22:49.407Z,0.0
2023-05-08T20:27:55.911Z,0.0
2023-05-08T20:33:02.273Z,0.0
2023-05-08T20:38:08.562Z,0.0
2023-05-08T20:43:49.088Z,0.0
2023-05-08T20:48:21.329Z,0.0
2023-05-08T20:53:53.316Z,0.0
2023-05-08T20:58:35.767Z,0.0
2023-05-08T21:03:42.365Z,0.0
2023-05-08T21:08:48.636Z,0.0
2023-05-08T21:13:55.016Z,0.0
2023-05-08T21:19:01.536Z,0.0
2023-05-08T21:24:07.782Z,0.0
2023-05-08T21:29:04.168Z,0.0
2023-05-08T21:34:22.262Z,0.0
2023-05-08T21:39:28.521Z,0.0
2023-05-08T21:44:34.914Z,0.0
2023-05-08T21:54:46.797Z,0.0
2023-05-08T21:59:53.053Z,0.0
2023-05-08T22:05:00.589Z,0.0
2023-05-08T22:09:57.077Z,0.0
2023-05-08T22:15:28.427Z,0.0
2023-05-08T22:20:21.365Z,0.0
2023-05-08T22:25:27.859Z,0.0
2023-05-08T22:30:34.115Z,0.0
2023-05-08T22:35:30.508Z,0.0
2023-05-08T22:40:47.024Z,0.0
2023-05-08T22:45:53.448Z,0.0
2023-05-08T22:51:23.849Z,0.0
2023-05-08T22:56:06.378Z,0.0
2023-05-08T23:01:12.744Z,0.0
2023-05-08T23:06:19.080Z,0.0
2023-05-08T23:11:27.145Z,0.0
2023-05-08T23:16:32.405Z,0.0
2023-05-08T23:21:41.351Z,0.0
2023-05-08T23:26:47.984Z,0.0
2023-05-08T23:31:54.239Z,0.0
2023-05-08T23:36:50.640Z,0.0
2023-05-08T23:42:07.154Z,0.0
2023-05-08T23:47:13.428Z,0.0
2023-05-08T23:52:19.802Z,0.0
2023-05-08T23:57:26.342Z,0.0
